Time;durP1;ratioP1;P1;durP2;ratioP2;P2;SDS_P1;SDS_P2;PMS_P1;PMS_P2;Temp;Humidity;BMP_temperature;BMP_pressure;BME280_temperature;BME280_humidity;BME280_pressure;Samples;Min_cycle;Max_cycle;Signal;HPM_P1;HPM_P2
2022/05/20 00:00:32;;;;;;;22.85;12.77;;;;;;;24.15;42.42;102292.31;5028324;28;20548;-74
2022/05/20 00:02:57;;;;;;;18.95;12.15;;;;;;;24.09;42.57;102282.75;5062191;28;20036;-73
2022/05/20 00:05:23;;;;;;;19.13;11.68;;;;;;;24.13;42.50;102284.38;5061214;28;20394;-74
2022/05/20 00:07:49;;;;;;;17.23;11.63;;;;;;;24.37;41.99;102281.50;5030463;28;20499;-74
2022/05/20 00:10:15;;;;;;;18.92;10.85;;;;;;;24.69;40.88;102289.91;5031356;28;20498;-74
2022/05/20 00:12:41;;;;;;;15.38;10.70;;;;;;;24.29;41.42;102287.22;5032730;28;20029;-74
2022/05/20 00:15:08;;;;;;;20.98;11.40;;;;;;;24.07;42.48;102284.66;5030448;28;20040;-74
2022/05/20 00:17:34;;;;;;;21.65;12.20;;;;;;;24.23;42.27;102290.16;5029886;28;20109;-74
2022/05/20 00:20:01;;;;;;;20.65;12.43;;;;;;;24.01;42.49;102295.59;5039204;28;20029;-74
2022/05/20 00:22:27;;;;;;;19.05;12.30;;;;;;;24.09;42.07;102293.44;5011227;28;20397;-73
2022/05/20 00:27:36;;;;;;;20.50;12.38;;;;;;;23.97;42.56;102288.66;5030872;28;20064;-73
2022/05/20 00:30:02;;;;;;;20.58;12.18;;;;;;;24.06;42.45;102282.91;5034442;28;20021;-74
2022/05/20 00:32:27;;;;;;;20.77;12.15;;;;;;;24.17;41.93;102285.97;5030029;28;20029;-74
2022/05/20 00:34:52;;;;;;;18.63;12.20;;;;;;;23.80;42.61;102290.22;5029273;28;20049;-74
2022/05/20 00:37:18;;;;;;;17.58;11.90;;;;;;;24.16;42.35;102284.22;5058527;28;20038;-74
2022/05/20 00:39:43;;;;;;;18.10;10.93;;;;;;;24.17;42.11;102280.63;5031416;28;20033;-74
2022/05/20 00:42:14;;;;;;;22.65;12.65;;;;;;;24.00;42.31;102277.81;5030879;28;20033;-74
2022/05/20 00:44:40;;;;;;;25.55;13.52;;;;;;;23.99;42.37;102271.63;5011054;28;20044;-73
2022/05/20 00:47:07;;;;;;;19.42;12.05;;;;;;;24.06;42.20;102277.56;5023736;28;20481;-74
2022/05/20 00:49:34;;;;;;;22.00;13.38;;;;;;;24.02;42.23;102283.97;5030295;28;20029;-73
2022/05/20 00:52:01;;;;;;;22.15;12.38;;;;;;;24.04;42.06;102279.41;5030102;28;20036;-74
2022/05/20 00:54:33;;;;;;;18.25;11.90;;;;;;;24.10;42.20;102278.28;5030116;28;20124;-73
2022/05/20 00:57:06;;;;;;;18.13;11.52;;;;;;;23.77;43.12;102282.34;5028319;28;20124;-74
2022/05/20 00:59:35;;;;;;;20.52;13.02;;;;;;;24.01;42.80;102280.41;5029910;28;20036;-74
2022/05/20 01:02:06;;;;;;;20.13;13.02;;;;;;;23.79;42.92;102280.47;5030244;28;20508;-74
2022/05/20 01:04:32;;;;;;;17.30;12.18;;;;;;;24.14;42.19;102272.75;5036362;28;20036;-74
2022/05/20 01:06:59;;;;;;;21.83;12.35;;;;;;;24.08;42.69;102265.00;5030283;28;20034;-74
2022/05/20 01:09:24;;;;;;;17.13;11.88;;;;;;;24.09;42.44;102272.09;5030553;28;20033;-74
2022/05/20 01:11:50;;;;;;;17.88;11.60;;;;;;;23.92;43.21;102270.16;5061425;28;20612;-74
2022/05/20 01:14:22;;;;;;;18.30;12.57;;;;;;;23.99;42.74;102262.75;5043126;28;20115;-74
2022/05/20 01:16:48;;;;;;;17.08;12.88;;;;;;;24.02;42.60;102259.94;5028754;28;20036;-74
2022/05/20 01:19:21;;;;;;;15.70;11.88;;;;;;;24.14;42.47;102255.84;5065116;28;20025;-74
2022/05/20 01:21:46;;;;;;;21.17;13.00;;;;;;;24.04;42.72;102244.72;5035337;28;20029;-74
2022/05/20 01:24:12;;;;;;;18.27;12.75;;;;;;;24.05;42.46;102239.28;5034093;28;20025;-74
2022/05/20 01:26:37;;;;;;;19.67;12.95;;;;;;;24.02;42.37;102236.78;5033417;28;20046;-74
2022/05/20 01:29:02;;;;;;;19.42;13.35;;;;;;;24.03;42.72;102224.31;5031014;28;20033;-74
2022/05/20 01:31:28;;;;;;;20.52;14.07;;;;;;;24.03;42.77;102219.81;5034179;28;20032;-74
2022/05/20 01:33:53;;;;;;;22.77;14.60;;;;;;;23.92;42.99;102219.44;5037464;28;20033;-74
2022/05/20 01:36:24;;;;;;;22.42;15.23;;;;;;;23.88;43.13;102218.69;5032500;28;20033;-74
2022/05/20 01:38:52;;;;;;;28.85;15.43;;;;;;;23.91;42.89;102204.34;5033520;28;20389;-74
2022/05/20 01:41:54;;;;;;;27.75;18.05;;;;;;;23.71;43.57;102208.75;5064841;28;20079;-74
2022/05/20 01:44:31;;;;;;;30.38;19.83;;;;;;;23.83;43.41;102209.97;5045703;28;20473;-73
2022/05/20 01:47:26;;;;;;;31.63;18.90;;;;;;;24.13;42.18;102212.25;5066720;28;20112;-74
2022/05/20 01:50:05;;;;;;;29.95;17.63;;;;;;;23.95;42.50;102215.78;5030111;28;20041;-74
2022/05/20 01:52:43;;;;;;;29.17;17.45;;;;;;;23.78;43.23;102219.13;5066153;28;20434;-75
2022/05/20 01:55:27;;;;;;;28.17;17.88;;;;;;;23.46;43.83;102213.41;5066093;28;20052;-74
2022/05/20 01:58:07;;;;;;;30.42;18.27;;;;;;;23.80;43.17;102226.16;5033522;28;20029;-74
2022/05/20 02:00:34;;;;;;;28.52;18.40;;;;;;;23.65;43.19;102216.16;5032379;28;20022;-74
2022/05/20 02:03:08;;;;;;;28.63;19.02;;;;;;;23.78;43.00;102209.34;5031998;28;20061;-74
2022/05/20 02:06:07;;;;;;;33.10;18.20;;;;;;;23.68;43.40;102216.00;5032676;28;20273;-74
2022/05/20 02:08:39;;;;;;;28.60;17.08;;;;;;;24.25;41.64;102209.94;5057057;28;20049;-74
2022/05/20 02:11:09;;;;;;;28.00;17.85;;;;;;;23.79;42.74;102216.41;5034201;28;20025;-74
2022/05/20 02:13:39;;;;;;;30.15;18.23;;;;;;;23.55;43.80;102219.22;5040581;28;20025;-74
2022/05/20 02:16:15;;;;;;;30.45;19.13;;;;;;;23.45;43.77;102207.22;5033138;28;20120;-74
2022/05/20 02:18:52;;;;;;;32.25;19.25;;;;;;;23.30;44.27;102205.16;5033210;28;20080;-74
2022/05/20 02:21:24;;;;;;;35.80;20.52;;;;;;;23.38;44.20;102205.72;5065418;28;20124;-74
2022/05/20 02:23:55;;;;;;;29.63;19.23;;;;;;;23.79;42.63;102194.19;5031463;28;20103;-74
2022/05/20 02:26:26;;;;;;;30.08;18.33;;;;;;;23.31;43.72;102193.56;5034168;28;20296;-73
2022/05/20 02:28:58;;;;;;;25.98;17.13;;;;;;;23.61;43.17;102206.53;5034355;28;20087;-74
2022/05/20 02:31:39;;;;;;;30.77;17.80;;;;;;;23.19;43.94;102195.84;5031834;28;20117;-74
2022/05/20 02:34:05;;;;;;;28.38;18.58;;;;;;;23.09;44.69;102193.59;5032086;28;20034;-73
2022/05/20 02:36:34;;;;;;;24.98;16.70;;;;;;;23.55;43.23;102200.53;5019023;28;20034;-75
2022/05/20 02:39:03;;;;;;;29.20;17.55;;;;;;;23.16;43.97;102205.75;5028552;28;20120;-74
2022/05/20 02:41:29;;;;;;;26.02;18.40;;;;;;;22.70;44.86;102203.13;5031330;28;20125;-74
2022/05/20 02:43:54;;;;;;;26.55;17.73;;;;;;;23.01;44.38;102207.22;5032211;28;20124;-74
2022/05/20 02:46:20;;;;;;;31.58;18.52;;;;;;;22.90;44.76;102199.66;5031758;28;20033;-75
2022/05/20 02:48:45;;;;;;;27.50;18.08;;;;;;;22.88;45.04;102206.84;5027882;28;20037;-75
2022/05/20 02:51:11;;;;;;;29.45;18.85;;;;;;;21.69;47.16;102213.91;5020799;28;20037;-74
2022/05/20 02:53:36;;;;;;;27.52;17.77;;;;;;;22.25;46.67;102206.63;5064734;28;20057;-74
2022/05/20 02:56:03;;;;;;;24.58;17.73;;;;;;;22.92;44.03;102207.63;5031770;28;20033;-74
2022/05/20 03:04:11;;;;;;;24.98;16.33;;;;;;;23.01;44.02;102215.22;5033897;28;20092;-74
2022/05/20 03:06:46;;;;;;;27.45;16.48;;;;;;;23.08;43.61;102208.72;5030377;28;20413;-74
2022/05/20 03:09:14;;;;;;;25.13;16.67;;;;;;;22.76;44.97;102208.19;5065196;28;20065;-74
2022/05/20 03:11:40;;;;;;;21.27;15.60;;;;;;;22.79;44.90;102213.44;5015579;28;20079;-74
2022/05/20 03:14:08;;;;;;;23.35;16.58;;;;;;;22.71;44.76;102223.53;5029995;28;20041;-74
2022/05/20 03:16:35;;;;;;;26.98;17.45;;;;;;;22.95;44.35;102228.81;5028893;28;20055;-73
2022/05/20 03:19:00;;;;;;;24.75;17.40;;;;;;;22.98;44.54;102223.34;5015355;28;20465;-74
2022/05/20 03:21:26;;;;;;;24.25;17.40;;;;;;;23.08;43.86;102214.06;5032666;28;20064;-74
2022/05/20 03:23:52;;;;;;;31.08;19.48;;;;;;;23.05;44.32;102208.81;5031089;28;20433;-74
2022/05/20 03:26:18;;;;;;;28.05;18.08;;;;;;;22.94;44.00;102208.41;5031831;28;20133;-74
2022/05/20 03:28:45;;;;;;;26.00;17.50;;;;;;;22.88;44.16;102210.38;5030116;28;20116;-74
2022/05/20 03:31:11;;;;;;;25.25;17.40;;;;;;;23.07;43.92;102206.09;5063653;28;20029;-74
2022/05/20 03:33:38;;;;;;;27.40;18.30;;;;;;;22.91;44.09;102200.53;5031419;28;20392;-74
2022/05/20 03:36:05;;;;;;;22.93;16.27;;;;;;;22.98;43.83;102202.00;5032658;28;20079;-74
2022/05/20 03:38:30;;;;;;;26.77;17.93;;;;;;;22.94;43.77;102195.06;5035614;28;20067;-74
2022/05/20 03:40:56;;;;;;;27.90;16.87;;;;;;;22.76;44.06;102194.88;5031017;28;20065;-75
2022/05/20 03:43:22;;;;;;;23.17;16.07;;;;;;;22.96;43.88;102193.22;5035080;28;20040;-74
2022/05/20 03:45:48;;;;;;;25.63;17.23;;;;;;;22.07;46.29;102193.06;5029742;28;20397;-74
2022/05/20 03:48:13;;;;;;;23.08;16.73;;;;;;;22.42;45.10;102187.34;5030949;28;20033;-74
2022/05/20 03:50:39;;;;;;;24.35;15.85;;;;;;;22.49;45.10;102179.06;5031661;28;20067;-75
2022/05/20 03:53:04;;;;;;;29.38;17.83;;;;;;;22.51;44.99;102182.53;5031260;28;20029;-75
2022/05/20 03:55:29;;;;;;;26.73;17.70;;;;;;;22.82;43.98;102175.09;5030491;28;20531;-74
2022/05/20 03:57:55;;;;;;;24.58;16.80;;;;;;;22.69;44.38;102174.75;5047774;28;20037;-74
2022/05/20 04:00:21;;;;;;;26.60;17.15;;;;;;;22.49;44.72;102168.41;5042909;28;20037;-75
2022/05/20 04:02:46;;;;;;;24.73;15.93;;;;;;;22.57;44.44;102161.91;5030732;28;20393;-74
2022/05/20 04:05:12;;;;;;;26.67;18.20;;;;;;;22.26;45.32;102160.44;5031739;28;20032;-74
2022/05/20 04:07:40;;;;;;;26.17;18.80;;;;;;;22.43;45.10;102157.97;5012261;28;20037;-74
2022/05/20 04:10:09;;;;;;;26.13;17.30;;;;;;;22.57;45.31;102149.44;5012187;28;20470;-74
2022/05/20 04:12:40;;;;;;;26.20;18.42;;;;;;;21.49;47.27;102154.28;5042547;28;20427;-74
2022/05/20 04:15:09;;;;;;;24.73;17.80;;;;;;;22.47;45.06;102162.25;5022723;28;20037;-74
2022/05/20 04:17:34;;;;;;;20.40;15.95;;;;;;;22.27;45.50;102170.13;4996391;28;20128;-74
2022/05/20 04:20:00;;;;;;;23.02;15.63;;;;;;;22.08;46.04;102178.81;5064199;28;20175;-74
2022/05/20 04:22:32;;;;;;;18.77;13.95;;;;;;;22.10;45.95;102184.94;5030956;28;20064;-74
2022/05/20 04:24:59;;;;;;;18.33;14.40;;;;;;;22.39;45.16;102177.69;5030200;28;20465;-74
2022/05/20 04:27:27;;;;;;;26.25;16.45;;;;;;;22.49;45.09;102183.50;5029811;28;20045;-74
2022/05/20 04:29:52;;;;;;;22.75;15.00;;;;;;;21.99;46.47;102195.13;5030747;28;20191;-74
2022/05/20 04:32:18;;;;;;;20.80;14.20;;;;;;;22.48;44.77;102192.44;5030233;28;20126;-74
2022/05/20 04:34:43;;;;;;;20.87;15.60;;;;;;;22.27;45.75;102183.44;5063548;28;20021;-74
2022/05/20 04:37:09;;;;;;;22.27;16.23;;;;;;;22.36;45.06;102183.13;5029072;28;20538;-74
2022/05/20 04:39:34;;;;;;;24.50;18.38;;;;;;;22.53;44.75;102185.13;5032293;28;20025;-74
2022/05/20 04:47:30;;;;;;;32.40;19.80;;;;;;;22.66;45.29;102190.84;5032174;28;20071;-74
2022/05/20 04:49:56;;;;;;;36.88;22.10;;;;;;;22.76;45.26;102186.03;5030000;28;20061;-74
2022/05/20 04:52:22;;;;;;;36.22;22.67;;;;;;;22.67;46.39;102187.28;5033324;28;20069;-74
2022/05/20 04:54:51;;;;;;;40.90;25.30;;;;;;;21.71;49.19;102188.16;5052965;28;20029;-74
2022/05/20 04:57:21;;;;;;;38.45;23.45;;;;;;;22.98;46.44;102186.03;5054391;28;20029;-74
2022/05/20 04:59:47;;;;;;;42.72;25.42;;;;;;;22.87;46.47;102189.13;5038900;28;20033;-74
2022/05/20 05:02:13;;;;;;;39.80;25.05;;;;;;;22.66;47.39;102190.84;5039852;28;20021;-74
2022/05/20 05:04:38;;;;;;;49.78;27.05;;;;;;;23.23;46.17;102190.38;5035852;28;20477;-74
2022/05/20 05:07:09;;;;;;;49.80;27.50;;;;;;;23.48;45.88;102193.72;5067278;28;20038;-74
2022/05/20 05:09:34;;;;;;;51.97;29.40;;;;;;;24.05;44.81;102190.38;5015046;28;20022;-74
2022/05/20 05:11:59;;;;;;;53.70;30.10;;;;;;;23.54;45.39;102190.78;5022203;28;20036;-74
2022/05/20 05:14:25;;;;;;;56.35;30.42;;;;;;;23.60;45.19;102188.78;5028148;28;20037;-74
2022/05/20 05:16:50;;;;;;;58.80;31.95;;;;;;;24.25;44.52;102197.47;5014260;28;20080;-74
2022/05/20 05:19:15;;;;;;;49.88;28.70;;;;;;;23.56;45.32;102180.03;5018745;28;20021;-74
2022/05/20 05:21:41;;;;;;;52.70;30.38;;;;;;;24.54;43.93;102185.41;5066774;28;20512;-74
2022/05/20 05:24:07;;;;;;;54.30;29.67;;;;;;;24.18;44.15;102186.22;5046509;28;20025;-74
2022/05/20 05:26:34;;;;;;;51.83;28.67;;;;;;;23.86;45.20;102185.84;5066534;28;20497;-74
2022/05/20 05:29:00;;;;;;;50.85;28.50;;;;;;;24.50;43.83;102188.31;5033822;28;20495;-74
2022/05/20 05:31:26;;;;;;;49.03;27.65;;;;;;;24.53;42.87;102185.47;5034895;28;20101;-73
2022/05/20 05:33:52;;;;;;;46.63;28.02;;;;;;;24.99;42.65;102185.06;5035612;28;20493;-74
2022/05/20 05:36:19;;;;;;;44.22;26.60;;;;;;;25.34;42.03;102177.97;5033187;28;20029;-74
2022/05/20 05:38:46;;;;;;;51.70;27.70;;;;;;;24.39;43.55;102186.16;5033751;28;20032;-74
2022/05/20 05:41:12;;;;;;;45.85;27.40;;;;;;;25.05;43.48;102182.09;5033618;28;20032;-74
2022/05/20 05:43:37;;;;;;;46.15;26.67;;;;;;;24.43;44.91;102182.38;5033587;28;20033;-73
2022/05/20 05:46:04;;;;;;;46.67;27.35;;;;;;;24.62;43.50;102179.75;5024191;28;20033;-74
2022/05/20 05:48:29;;;;;;;45.25;27.23;;;;;;;24.76;43.74;102180.84;5033119;28;20163;-74
2022/05/20 05:50:59;;;;;;;46.15;27.08;;;;;;;25.79;42.41;102166.72;5033663;28;20017;-74
2022/05/20 05:53:27;;;;;;;43.45;25.63;;;;;;;25.63;41.28;102167.56;5034608;28;20033;-74
2022/05/20 05:55:58;;;;;;;40.97;26.90;;;;;;;25.97;41.40;102172.94;5044796;28;20174;-74
2022/05/20 05:58:25;;;;;;;44.85;26.20;;;;;;;25.52;41.74;102170.78;5047555;28;20151;-74
2022/05/20 06:00:50;;;;;;;40.20;25.67;;;;;;;25.11;43.76;102176.44;5066561;28;20032;-74
2022/05/20 06:03:16;;;;;;;44.80;28.00;;;;;;;25.63;42.84;102162.19;5033513;28;20033;-74
2022/05/20 06:05:43;;;;;;;50.25;28.63;;;;;;;25.15;42.95;102156.59;5029624;28;20044;-74
2022/05/20 06:08:08;;;;;;;43.22;27.85;;;;;;;25.86;41.95;102157.44;5032884;28;20057;-74
2022/05/20 06:10:34;;;;;;;40.90;25.02;;;;;;;26.04;41.74;102166.31;5040173;28;20024;-74
2022/05/20 06:13:00;;;;;;;47.03;25.45;;;;;;;26.40;40.83;102168.75;5040479;28;20401;-74
2022/05/20 06:15:26;;;;;;;43.25;25.95;;;;;;;26.52;41.50;102161.00;5031531;28;20025;-75
2022/05/20 06:17:52;;;;;;;46.00;26.55;;;;;;;26.46;40.82;102167.56;5061720;28;20064;-73
2022/05/20 06:20:20;;;;;;;41.22;25.15;;;;;;;25.93;42.67;102169.53;5032385;28;20507;-74
2022/05/20 06:22:45;;;;;;;38.97;24.17;;;;;;;25.93;41.76;102166.88;5031465;28;20614;-73
2022/05/20 06:25:12;;;;;;;33.30;22.15;;;;;;;26.54;40.06;102157.28;5031406;28;20022;-74
2022/05/20 06:27:39;;;;;;;35.28;21.95;;;;;;;28.00;38.99;102156.72;5036579;28;20034;-74
2022/05/20 06:30:08;;;;;;;33.00;21.40;;;;;;;28.72;36.55;102159.28;5031694;28;20029;-73
2022/05/20 06:32:34;;;;;;;32.33;19.95;;;;;;;29.03;35.41;102151.84;5031869;28;20025;-74
2022/05/20 06:40:44;;;;;;;23.60;15.63;;;;;;;31.35;30.97;102145.94;5031511;28;20044;-74
2022/05/20 06:43:12;;;;;;;21.55;14.02;;;;;;;31.34;30.71;102149.59;5032276;28;20458;-73
2022/05/20 06:45:37;;;;;;;21.20;15.25;;;;;;;30.49;32.25;102154.19;5032224;28;20033;-73
2022/05/20 06:48:03;;;;;;;20.50;14.35;;;;;;;29.37;33.16;102149.56;5029215;28;20033;-73
2022/05/20 06:50:28;;;;;;;21.70;14.05;;;;;;;30.41;32.12;102157.41;5045109;28;20037;-73
2022/05/20 06:52:53;;;;;;;27.00;15.15;;;;;;;30.36;32.63;102156.03;4995312;28;20397;-73
2022/05/20 06:55:19;;;;;;;22.02;14.77;;;;;;;29.68;33.80;102147.41;5029231;28;20052;-73
2022/05/20 06:57:44;;;;;;;22.50;15.07;;;;;;;30.88;32.13;102149.44;5030963;28;20493;-73
2022/05/20 07:00:12;;;;;;;23.67;15.13;;;;;;;31.79;31.37;102133.44;5048096;28;20025;-73
2022/05/20 07:02:38;;;;;;;22.45;14.32;;;;;;;31.73;30.77;102136.66;5032159;28;20455;-72
2022/05/20 07:05:06;;;;;;;20.65;13.32;;;;;;;31.88;30.00;102135.41;5036635;28;20388;-73
2022/05/20 07:07:32;;;;;;;21.10;12.70;;;;;;;33.72;27.32;102127.28;5032137;28;20071;-74
2022/05/20 07:09:58;;;;;;;22.23;13.73;;;;;;;33.47;28.25;102129.47;5027524;28;20021;-73
2022/05/20 07:12:24;;;;;;;17.67;11.32;;;;;;;35.00;25.04;102127.34;5014671;28;20029;-74
2022/05/20 07:14:49;;;;;;;16.83;11.55;;;;;;;34.89;25.65;102130.22;5032151;28;20021;-73
2022/05/20 07:17:20;;;;;;;17.10;10.85;;;;;;;36.56;24.06;102130.41;5032007;28;20036;-73
2022/05/20 07:19:46;;;;;;;13.93;9.20;;;;;;;36.41;23.33;102121.06;5030394;28;20024;-73
2022/05/20 07:22:11;;;;;;;15.98;9.38;;;;;;;36.73;22.49;102125.09;5030278;28;20033;-73
2022/05/20 07:24:38;;;;;;;13.02;9.90;;;;;;;34.44;24.56;102120.78;5033294;28;20017;-73
2022/05/20 07:27:04;;;;;;;12.07;9.20;;;;;;;37.61;22.12;102124.19;5043027;28;20056;-73
2022/05/20 07:29:29;;;;;;;15.98;9.20;;;;;;;35.42;24.19;102114.41;5031464;28;20382;-73
2022/05/20 07:31:54;;;;;;;14.40;8.82;;;;;;;35.66;23.25;102101.13;5030775;28;20099;-73
2022/05/20 07:34:20;;;;;;;12.25;8.75;;;;;;;34.83;24.09;102109.09;5030755;28;20088;-73
2022/05/20 07:36:45;;;;;;;11.35;8.70;;;;;;;36.09;22.84;102095.19;5031559;28;20025;-72
2022/05/20 07:39:10;;;;;;;11.63;7.82;;;;;;;34.30;24.98;102094.06;5038831;28;20082;-73
2022/05/20 07:41:36;;;;;;;14.65;7.18;;;;;;;31.55;27.67;102093.03;5030046;28;20029;-73
2022/05/20 07:44:02;;;;;;;11.35;7.40;;;;;;;31.79;27.89;102090.22;5033724;28;20033;-73
2022/05/20 07:46:28;;;;;;;12.25;7.93;;;;;;;32.74;26.23;102080.63;5011372;28;20033;-73
2022/05/20 07:48:53;;;;;;;11.30;6.65;;;;;;;30.96;28.39;102071.44;5030298;28;20025;-72
2022/05/20 07:51:21;;;;;;;11.88;6.70;;;;;;;32.02;26.58;102063.16;5031305;28;20487;-72
2022/05/20 07:53:54;;;;;;;12.43;7.72;;;;;;;30.59;28.69;102058.09;5048060;28;20020;-73
2022/05/20 07:56:42;;;;;;;13.18;7.75;;;;;;;30.26;29.59;102062.31;5051620;28;20021;-73
2022/05/20 07:59:16;;;;;;;11.88;8.18;;;;;;;31.51;29.40;102059.16;5050866;28;20013;-73
2022/05/20 08:01:48;;;;;;;12.73;7.53;;;;;;;31.83;28.08;102053.84;5036245;28;20124;-72
2022/05/20 08:07:02;;;;;;;11.98;7.45;;;;;;;34.36;24.43;102054.66;5034892;28;20040;-73
2022/05/20 08:09:28;;;;;;;14.10;7.45;;;;;;;33.73;25.28;102050.38;5036244;28;20048;-72
2022/05/20 08:11:53;;;;;;;10.35;7.38;;;;;;;34.60;23.88;102044.22;5016365;28;20143;-72
2022/05/20 08:14:19;;;;;;;9.95;7.78;;;;;;;33.54;25.50;102034.91;5029630;28;20639;-73
2022/05/20 08:16:44;;;;;;;11.40;7.55;;;;;;;32.18;26.86;102042.00;5026976;28;20020;-73
2022/05/20 08:19:10;;;;;;;10.88;6.38;;;;;;;33.55;24.31;102042.91;5031661;28;20429;-72
2022/05/20 08:21:35;;;;;;;12.45;7.32;;;;;;;32.86;26.28;102038.97;5031830;28;20029;-73
2022/05/20 08:24:01;;;;;;;10.30;7.57;;;;;;;32.67;26.40;102041.53;5040491;28;20021;-72
2022/05/20 08:26:26;;;;;;;17.48;8.38;;;;;;;32.74;25.80;102048.16;5039602;28;20052;-73
2022/05/20 08:28:52;;;;;;;13.45;7.07;;;;;;;32.56;26.47;102018.97;5046040;28;20045;-73
2022/05/20 08:31:17;;;;;;;13.00;7.03;;;;;;;32.71;27.01;102016.81;5029401;28;20052;-73
2022/05/20 08:33:43;;;;;;;11.43;7.60;;;;;;;33.10;26.17;102017.03;5029666;28;20459;-73
2022/05/20 08:36:08;;;;;;;11.68;7.07;;;;;;;32.87;26.43;102016.34;5029772;28;20036;-73
2022/05/20 08:38:34;;;;;;;8.63;6.82;;;;;;;33.70;25.81;102007.28;5029501;28;20101;-73
2022/05/20 08:41:00;;;;;;;11.73;6.68;;;;;;;34.31;24.94;101990.00;5014087;28;20021;-73
2022/05/20 08:43:31;;;;;;;8.75;5.97;;;;;;;33.35;25.73;101984.25;5027826;28;20847;-73
2022/05/20 08:45:56;;;;;;;8.10;4.90;;;;;;;33.76;25.42;101971.50;5030109;28;20120;-73
2022/05/20 08:48:22;;;;;;;5.55;4.28;;;;;;;33.53;25.26;101960.91;5060511;28;20455;-73
2022/05/20 08:50:51;;;;;;;8.20;5.32;;;;;;;32.57;25.62;101946.75;5036979;28;20022;-71
2022/05/20 08:53:31;;;;;;;7.90;4.68;;;;;;;32.09;27.62;101945.41;5032720;28;20119;-72
2022/05/20 08:56:00;;;;;;;7.57;4.47;;;;;;;33.93;25.16;101938.28;5029225;28;20120;-72
2022/05/20 08:58:26;;;;;;;8.52;4.15;;;;;;;33.18;26.19;101927.00;5032462;28;20464;-71
2022/05/20 09:00:51;;;;;;;9.27;4.80;;;;;;;33.85;25.43;101919.16;5059910;28;20025;-72
2022/05/20 09:03:17;;;;;;;5.82;4.60;;;;;;;33.03;25.93;101921.09;5033815;28;20432;-72
2022/05/20 09:05:44;;;;;;;7.22;4.93;;;;;;;30.87;28.26;101923.75;5034217;28;20034;-72
2022/05/20 09:08:12;;;;;;;8.73;4.65;;;;;;;31.36;27.94;101920.78;5029178;28;20037;-71
2022/05/20 09:10:46;;;;;;;9.88;4.80;;;;;;;32.05;27.08;101927.72;5029527;28;20496;-72
2022/05/20 09:16:21;;;;;;;7.50;4.22;;;;;;;31.35;26.96;101919.06;5025492;28;20095;-71
2022/05/20 09:19:13;;;;;;;9.63;4.57;;;;;;;32.13;26.24;101914.41;5024019;28;20461;-71
2022/05/20 09:21:43;;;;;;;5.97;4.47;;;;;;;31.52;26.90;101923.06;5026788;28;20038;-71
2022/05/20 09:24:20;;;;;;;8.82;4.68;;;;;;;32.34;26.33;101914.44;5063055;28;20018;-71
2022/05/20 09:26:50;;;;;;;7.65;4.75;;;;;;;32.14;27.31;101913.44;5031497;28;20061;-71
2022/05/20 09:29:46;;;;;;;8.50;4.93;;;;;;;32.35;26.84;101912.59;5028276;28;20053;-71
2022/05/20 09:32:39;;;;;;;7.10;5.28;;;;;;;30.74;28.89;101915.75;5043463;28;20041;-72
2022/05/20 09:35:07;;;;;;;9.98;5.45;;;;;;;31.46;27.59;101900.13;5024970;28;20029;-72
2022/05/20 09:37:34;;;;;;;6.15;4.93;;;;;;;31.78;28.07;101893.94;5029957;28;20485;-72
2022/05/20 09:40:24;;;;;;;9.05;5.05;;;;;;;33.12;25.63;101879.63;5035759;28;20148;-71
2022/05/20 09:42:59;;;;;;;7.05;4.95;;;;;;;31.93;27.21;101873.72;5024813;28;20029;-71
2022/05/20 09:45:25;;;;;;;7.40;4.93;;;;;;;32.44;26.40;101879.34;5047188;28;20057;-71
2022/05/20 09:47:54;;;;;;;10.43;5.20;;;;;;;32.35;26.93;101870.19;5012994;28;20471;-72
2022/05/20 09:50:34;;;;;;;9.52;4.97;;;;;;;31.73;27.28;101869.16;5021979;28;20103;-71
2022/05/20 09:53:18;;;;;;;6.43;5.18;;;;;;;32.20;27.44;101850.72;5052597;28;20043;-72
2022/05/20 09:55:45;;;;;;;9.00;5.47;;;;;;;31.50;27.98;101842.16;5046003;28;20033;-72
2022/05/20 09:58:27;;;;;;;9.63;5.88;;;;;;;31.94;27.92;101823.22;5047169;28;20145;-71
2022/05/20 10:00:57;;;;;;;13.98;5.82;;;;;;;32.15;27.31;101820.53;5045875;28;20026;-72
2022/05/20 10:03:38;;;;;;;8.98;5.82;;;;;;;32.61;27.48;101816.47;5046561;28;20049;-71
2022/05/20 10:06:31;;;;;;;9.40;6.55;;;;;;;32.85;26.39;101806.31;5046649;28;20032;-72
2022/05/20 10:09:15;;;;;;;6.43;5.03;;;;;;;32.24;27.87;101786.44;5052476;28;20184;-72
2022/05/20 10:12:01;;;;;;;9.18;5.70;;;;;;;33.11;26.48;101801.25;5033122;28;20665;-71
2022/05/20 10:14:38;;;;;;;8.52;4.90;;;;;;;32.97;26.76;101797.09;5032215;28;20121;-72
2022/05/20 10:17:13;;;;;;;11.30;5.38;;;;;;;32.16;27.22;101792.50;5032134;28;20022;-72
2022/05/20 10:19:55;;;;;;;9.52;5.70;;;;;;;31.93;26.66;101778.25;5031343;28;20041;-72
2022/05/20 10:22:50;;;;;;;9.68;5.63;;;;;;;32.75;26.58;101757.59;5034704;28;20384;-73
2022/05/20 10:25:36;;;;;;;8.18;4.93;;;;;;;32.60;26.39;101735.44;5038144;28;20119;-73
2022/05/20 10:32:34;;;;;;;7.75;4.78;;;;;;;33.17;26.14;101721.28;5052683;28;20047;-73
2022/05/20 10:34:02;;;;;;;8.30;5.28;;;;;;;32.20;27.01;101703.88;5014279;28;20501;-74
2022/05/20 10:36:53;;;;;;;12.18;6.07;;;;;;;31.88;27.28;101686.75;5049074;28;20026;-73
2022/05/20 10:39:57;;;;;;;6.53;5.22;;;;;;;32.49;27.28;101676.91;5000290;28;20048;-73
2022/05/20 10:42:46;;;;;;;8.55;5.45;;;;;;;32.98;25.52;101667.00;5020254;28;20469;-73
2022/05/20 10:48:34;;;;;;;8.02;5.68;;;;;;;31.33;27.04;101659.13;5033471;28;20059;-74
2022/05/20 10:51:03;;;;;;;8.45;5.53;;;;;;;31.99;26.75;101650.69;5034537;28;20489;-73
2022/05/20 10:54:00;;;;;;;10.90;6.65;;;;;;;31.80;27.01;101654.16;5027998;28;20026;-72
2022/05/20 10:56:47;;;;;;;9.07;6.38;;;;;;;32.50;27.51;101629.91;5032207;28;20052;-73
2022/05/20 10:59:34;;;;;;;8.32;6.80;;;;;;;32.19;27.26;101616.50;5036509;28;20389;-73
2022/05/20 11:02:14;;;;;;;10.65;7.03;;;;;;;31.54;27.92;101603.22;5052172;28;20025;-73
2022/05/20 11:05:07;;;;;;;8.02;6.45;;;;;;;33.12;27.19;101597.19;5032248;28;20044;-73
2022/05/20 11:07:37;;;;;;;11.50;7.07;;;;;;;32.60;26.91;101573.09;5032135;28;20467;-73
2022/05/20 11:10:25;;;;;;;12.52;7.57;;;;;;;31.94;27.63;101564.59;5032062;28;20033;-73
2022/05/20 11:13:08;;;;;;;9.55;6.88;;;;;;;31.96;27.55;101546.38;5030846;28;20025;-73
2022/05/20 11:15:39;;;;;;;14.30;7.57;;;;;;;31.70;27.94;101550.59;5033494;28;20026;-72
2022/05/20 11:18:20;;;;;;;10.70;7.40;;;;;;;32.66;26.82;101548.19;5012550;28;20044;-73
2022/05/20 11:21:19;;;;;;;13.48;7.68;;;;;;;33.83;26.84;101547.09;5045151;28;20084;-72
2022/05/20 11:24:14;;;;;;;11.60;7.15;;;;;;;33.60;26.21;101527.63;5021013;28;20041;-73
2022/05/20 11:27:03;;;;;;;11.65;6.30;;;;;;;32.52;26.73;101529.69;5028364;28;20099;-73
2022/05/20 11:30:00;;;;;;;10.43;6.70;;;;;;;31.22;28.72;101527.75;5032859;28;20037;-73
2022/05/20 11:32:28;;;;;;;10.45;6.75;;;;;;;30.85;28.67;101518.25;5039992;28;20821;-73
2022/05/20 11:35:06;;;;;;;9.30;6.80;;;;;;;30.58;29.44;101500.75;5032077;28;20036;-73
2022/05/20 11:37:53;;;;;;;11.98;6.85;;;;;;;30.64;29.80;101493.97;5032619;28;20136;-73
2022/05/20 11:40:31;;;;;;;11.57;7.25;;;;;;;30.57;29.39;101487.38;5014297;28;20037;-74
2022/05/20 11:43:25;;;;;;;11.10;6.43;;;;;;;29.88;30.81;101475.97;5032718;28;20032;-73
2022/05/20 11:45:53;;;;;;;12.30;6.80;;;;;;;30.71;28.70;101468.16;5032545;28;20035;-73
2022/05/20 11:48:28;;;;;;;12.85;6.88;;;;;;;30.35;29.28;101451.44;5021013;28;20030;-73
2022/05/20 11:51:07;;;;;;;13.48;7.88;;;;;;;30.09;30.73;101459.00;5057774;28;20036;-73
2022/05/20 11:53:49;;;;;;;9.35;6.70;;;;;;;29.25;31.68;101468.41;5044039;28;20033;-73
2022/05/20 11:56:30;;;;;;;13.50;6.90;;;;;;;29.92;31.91;101460.41;5031473;28;20030;-73
2022/05/20 11:59:07;;;;;;;12.02;7.60;;;;;;;30.00;31.93;101467.84;5004190;28;20033;-74
2022/05/20 12:01:36;;;;;;;12.35;8.50;;;;;;;29.53;32.47;101495.81;5010227;28;20041;-74